createdAt,value
2022-10-24T00:01:15.452Z,3.90
2022-10-24T00:03:42.262Z,3.97
2022-10-24T00:06:10.451Z,3.17
2022-10-24T00:08:39.133Z,2.10
2022-10-24T00:11:17.390Z,2.15
2022-10-24T00:13:44.834Z,2.58
2022-10-24T00:16:12.575Z,1.92
2022-10-24T00:18:39.510Z,1.50
2022-10-24T00:21:06.728Z,2.35
2022-10-24T00:23:34.031Z,1.60
2022-10-24T00:26:02.035Z,2.08
2022-10-24T00:28:30.641Z,2.85
2022-10-24T00:30:58.067Z,1.48
2022-10-24T00:33:25.447Z,2.70
2022-10-24T00:35:52.385Z,2.22
2022-10-24T00:38:19.262Z,1.50
2022-10-24T00:40:46.218Z,2.65
2022-10-24T00:43:18.207Z,1.40
2022-10-24T00:45:47.080Z,2.13
2022-10-24T00:48:25.452Z,1.70
2022-10-24T00:50:57.159Z,2.33
2022-10-24T00:53:25.482Z,2.00
2022-10-24T00:55:55.446Z,1.58
2022-10-24T00:58:26.010Z,2.80
2022-10-24T01:00:53.053Z,1.70
2022-10-24T01:03:19.899Z,1.40
2022-10-24T01:06:23.295Z,2.33
2022-10-24T01:09:16.537Z,2.08
2022-10-24T01:11:57.994Z,1.85
2022-10-24T01:14:42.335Z,2.40
2022-10-24T01:17:18.382Z,2.58
2022-10-24T01:19:53.814Z,2.80
2022-10-24T01:22:31.468Z,2.33
2022-10-24T01:25:07.337Z,2.38
2022-10-24T01:28:11.454Z,2.42
2022-10-24T01:30:50.425Z,2.40
2022-10-24T01:33:26.239Z,1.95
2022-10-24T01:36:00.545Z,1.60
2022-10-24T01:38:42.488Z,1.42
2022-10-24T01:41:13.846Z,1.57
2022-10-24T01:43:48.948Z,2.40
2022-10-24T01:46:21.331Z,1.20
2022-10-24T01:48:57.281Z,1.33
2022-10-24T01:51:27.479Z,1.17
2022-10-24T01:53:55.875Z,2.42
2022-10-24T01:56:26.140Z,0.82
2022-10-24T01:58:53.150Z,1.60
2022-10-24T02:01:24.040Z,1.13
2022-10-24T02:03:58.058Z,1.38
2022-10-24T02:06:34.206Z,1.50
2022-10-24T02:09:07.700Z,1.10
2022-10-24T02:11:35.786Z,0.90
2022-10-24T02:14:08.473Z,1.02
2022-10-24T02:16:35.843Z,0.55
2022-10-24T02:19:02.921Z,0.80
2022-10-24T02:21:29.880Z,0.80
2022-10-24T02:24:02.849Z,0.50
2022-10-24T02:26:57.986Z,1.50
2022-10-24T02:29:32.460Z,0.50
2022-10-24T02:32:00.115Z,0.93
2022-10-24T02:34:32.026Z,0.75
2022-10-24T02:37:00.840Z,0.30
2022-10-24T02:39:29.894Z,0.30
2022-10-24T02:41:58.807Z,0.73
2022-10-24T02:44:28.286Z,0.63
2022-10-24T02:46:58.573Z,0.38
2022-10-24T02:49:25.413Z,0.47
2022-10-24T02:51:53.112Z,0.28
2022-10-24T02:54:19.925Z,0.25
2022-10-24T02:56:52.122Z,0.22
2022-10-24T02:59:18.989Z,0.47
2022-10-24T03:01:45.782Z,0.30
2022-10-24T03:04:12.647Z,0.57
2022-10-24T03:06:39.505Z,0.35
2022-10-24T03:09:06.329Z,0.40
2022-10-24T03:11:33.192Z,0.38
2022-10-24T03:14:00.046Z,1.10
2022-10-24T03:16:28.654Z,0.60
2022-10-24T03:18:56.002Z,0.20
2022-10-24T03:21:23.473Z,0.40
2022-10-24T03:23:50.396Z,0.63
2022-10-24T03:26:17.199Z,0.45
2022-10-24T03:28:43.968Z,0.30
2022-10-24T03:31:11.364Z,0.60
2022-10-24T03:33:38.170Z,0.30
2022-10-24T03:36:05.566Z,1.15
2022-10-24T03:38:32.389Z,0.40
2022-10-24T03:40:59.247Z,0.70
2022-10-24T03:43:26.105Z,0.57
2022-10-24T03:45:52.896Z,0.63
2022-10-24T03:48:19.634Z,0.30
2022-10-24T03:50:46.474Z,0.30
2022-10-24T03:53:13.299Z,0.60
2022-10-24T03:55:40.062Z,1.27
2022-10-24T03:58:07.087Z,1.13
2022-10-24T04:00:39.052Z,0.90
2022-10-24T04:03:06.892Z,0.50
2022-10-24T04:05:34.520Z,0.93
2022-10-24T04:08:01.501Z,0.85
2022-10-24T04:10:28.519Z,0.70
2022-10-24T04:12:55.393Z,1.60
2022-10-24T04:15:22.190Z,0.98
2022-10-24T04:17:49.083Z,0.95
2022-10-24T04:20:19.868Z,0.65
2022-10-24T04:22:47.752Z,0.55
2022-10-24T04:25:15.798Z,0.60
2022-10-24T04:27:42.615Z,0.60
2022-10-24T04:30:16.348Z,0.77
2022-10-24T04:32:44.545Z,0.65
2022-10-24T04:35:12.133Z,1.23
2022-10-24T04:37:38.903Z,1.08
2022-10-24T04:40:06.470Z,0.80
2022-10-24T04:42:33.302Z,0.70
2022-10-24T04:45:00.093Z,0.70
2022-10-24T04:47:27.031Z,1.83
2022-10-24T04:49:53.792Z,1.15
2022-10-24T04:52:20.588Z,0.85
2022-10-24T04:54:47.386Z,0.98
2022-10-24T04:57:14.173Z,0.88
2022-10-24T04:59:40.937Z,0.65
2022-10-24T05:02:07.750Z,0.45
2022-10-24T05:04:34.642Z,0.50
2022-10-24T05:07:01.752Z,1.55
2022-10-24T05:09:28.610Z,0.80
2022-10-24T05:11:56.521Z,0.85
2022-10-24T05:14:24.298Z,1.13
2022-10-24T05:16:51.110Z,0.70
2022-10-24T05:19:19.641Z,1.00
2022-10-24T05:21:46.640Z,0.55
2022-10-24T05:24:13.610Z,0.40
2022-10-24T05:26:40.498Z,0.50
2022-10-24T05:31:38.971Z,0.93
2022-10-24T05:34:05.731Z,0.80
2022-10-24T05:36:32.549Z,0.30
2022-10-24T05:38:59.383Z,0.75
2022-10-24T05:41:26.153Z,0.47
2022-10-24T05:43:52.984Z,0.90
2022-10-24T05:46:19.817Z,0.70
2022-10-24T05:48:46.823Z,0.50
2022-10-24T05:51:13.632Z,0.60
2022-10-24T05:53:40.577Z,0.30
2022-10-24T05:56:07.426Z,0.63
2022-10-24T05:58:34.537Z,0.47
2022-10-24T06:01:01.732Z,1.17
2022-10-24T06:03:28.669Z,0.28
2022-10-24T06:05:55.448Z,0.50
2022-10-24T06:08:22.497Z,0.63
2022-10-24T06:10:50.994Z,0.88
2022-10-24T06:13:18.410Z,0.30
2022-10-24T06:15:45.617Z,0.68
2022-10-24T06:18:12.663Z,0.80
2022-10-24T06:20:39.485Z,0.57
2022-10-24T06:23:06.422Z,0.50
2022-10-24T06:25:33.252Z,0.68
2022-10-24T06:28:00.564Z,0.57
2022-10-24T06:30:27.552Z,0.88
2022-10-24T06:32:54.393Z,0.30
2022-10-24T06:35:21.206Z,0.70
2022-10-24T06:37:48.537Z,0.22
2022-10-24T06:40:16.980Z,0.30
2022-10-24T06:42:44.101Z,0.68
2022-10-24T06:45:11.087Z,0.57
2022-10-24T06:47:38.124Z,0.45
2022-10-24T06:50:05.755Z,1.02
2022-10-24T06:52:32.865Z,0.90
2022-10-24T06:54:59.640Z,0.57
2022-10-24T06:57:26.410Z,0.30
2022-10-24T06:59:53.737Z,0.30
2022-10-24T07:02:20.880Z,0.50
2022-10-24T07:04:47.915Z,1.10
2022-10-24T07:07:20.140Z,0.15
2022-10-24T07:09:56.994Z,0.60
2022-10-24T07:12:24.643Z,0.32
2022-10-24T07:14:51.694Z,0.90
2022-10-24T07:17:20.152Z,0.28
2022-10-24T07:19:52.832Z,0.28
2022-10-24T07:22:19.754Z,1.52
2022-10-24T07:24:46.635Z,0.70
2022-10-24T07:27:13.521Z,0.22
2022-10-24T07:29:40.317Z,0.32
2022-10-24T07:32:07.111Z,0.40
2022-10-24T07:34:34.936Z,0.50
2022-10-24T07:37:04.317Z,0.40
2022-10-24T07:39:31.089Z,0.52
2022-10-24T07:41:59.039Z,0.40
2022-10-24T07:44:25.810Z,0.55
2022-10-24T07:46:52.637Z,0.60
2022-10-24T07:49:19.474Z,0.70
2022-10-24T07:51:46.249Z,1.30
2022-10-24T07:54:13.123Z,0.80
2022-10-24T07:56:40.008Z,0.95
2022-10-24T07:59:09.737Z,0.47
2022-10-24T08:01:40.681Z,0.28
2022-10-24T08:04:07.466Z,0.50
2022-10-24T08:06:34.281Z,0.88
2022-10-24T08:09:01.180Z,0.50
2022-10-24T08:11:29.923Z,0.60
2022-10-24T08:13:57.376Z,1.15
2022-10-24T08:16:25.150Z,0.35
2022-10-24T08:18:53.821Z,0.60
2022-10-24T08:21:22.189Z,0.52
2022-10-24T08:23:51.360Z,0.77
2022-10-24T08:26:20.319Z,0.40
2022-10-24T08:28:47.226Z,0.70
2022-10-24T08:31:17.730Z,0.32
2022-10-24T08:33:45.838Z,0.80
2022-10-24T08:36:31.004Z,0.68
2022-10-24T08:38:58.805Z,0.60
2022-10-24T08:41:28.466Z,1.85
2022-10-24T08:43:57.679Z,0.70
2022-10-24T08:47:09.914Z,0.93
2022-10-24T08:50:16.697Z,0.60
2022-10-24T08:52:48.567Z,1.10
2022-10-24T08:55:48.949Z,0.90
2022-10-24T08:58:18.434Z,0.90
2022-10-24T09:00:48.729Z,0.60
2022-10-24T09:03:51.195Z,1.30
2022-10-24T09:06:37.640Z,0.93
2022-10-24T09:09:12.691Z,0.82
2022-10-24T09:11:58.552Z,1.00
2022-10-24T09:14:30.731Z,0.77
2022-10-24T09:17:01.574Z,0.47
2022-10-24T09:19:31.103Z,0.60
2022-10-24T09:22:00.237Z,0.82
2022-10-24T09:24:45.809Z,0.55
2022-10-24T09:27:19.104Z,1.13
2022-10-24T09:29:46.098Z,0.63
2022-10-24T09:32:26.863Z,0.57
2022-10-24T09:34:55.093Z,1.40
2022-10-24T09:37:40.322Z,0.60
2022-10-24T09:40:31.838Z,0.93
2022-10-24T09:43:20.588Z,0.88
2022-10-24T09:46:01.173Z,0.70
2022-10-24T09:48:46.147Z,0.45
2022-10-24T09:51:31.258Z,0.60
2022-10-24T09:54:05.396Z,0.88
2022-10-24T09:56:41.231Z,0.82
2022-10-24T09:59:31.864Z,0.80
2022-10-24T10:02:14.396Z,0.90
2022-10-24T10:04:41.947Z,1.35
2022-10-24T10:07:15.077Z,0.88
2022-10-24T10:10:04.337Z,0.50
2022-10-24T10:12:42.513Z,1.13
2022-10-24T10:15:32.976Z,1.60
2022-10-24T10:18:26.045Z,0.63
2022-10-24T10:21:21.149Z,0.40
2022-10-24T10:23:50.699Z,0.60
2022-10-24T10:26:29.866Z,1.30
2022-10-24T10:29:21.180Z,0.60
2022-10-24T10:32:13.174Z,0.60
2022-10-24T10:35:08.255Z,0.70
2022-10-24T10:37:41.545Z,0.85
2022-10-24T10:40:34.331Z,0.70
2022-10-24T10:43:44.063Z,0.98
2022-10-24T10:46:20.582Z,0.77
2022-10-24T10:48:54.982Z,0.60
2022-10-24T10:51:36.862Z,1.33
2022-10-24T10:54:28.507Z,0.73
2022-10-24T10:57:00.166Z,0.52
2022-10-24T10:59:54.967Z,0.50
2022-10-24T11:02:49.334Z,1.08
2022-10-24T11:05:49.794Z,0.60
2022-10-24T11:08:34.479Z,1.42
2022-10-24T11:11:05.122Z,1.17
2022-10-24T11:13:40.816Z,1.08
2022-10-24T11:16:14.310Z,0.70
2022-10-24T11:18:45.953Z,0.85
2022-10-24T11:21:15.461Z,1.00
2022-10-24T11:24:13.601Z,0.82
2022-10-24T11:26:50.780Z,0.80
2022-10-24T11:29:47.353Z,1.27
2022-10-24T11:32:20.609Z,1.15
2022-10-24T11:34:52.912Z,0.98
2022-10-24T11:37:33.274Z,1.20
2022-10-24T11:40:13.327Z,1.02
2022-10-24T11:42:52.616Z,0.98
2022-10-24T11:45:22.865Z,0.70
2022-10-24T11:48:14.993Z,0.63
2022-10-24T11:51:19.169Z,0.80
2022-10-24T11:53:59.321Z,1.15
2022-10-24T11:56:40.266Z,1.55
2022-10-24T11:59:12.442Z,0.85
2022-10-24T12:02:18.143Z,0.93
2022-10-24T12:05:00.337Z,1.55
2022-10-24T12:08:01.189Z,1.00
2022-10-24T12:10:27.967Z,1.52
2022-10-24T12:12:57.800Z,1.05
2022-10-24T12:15:32.224Z,0.98
2022-10-24T12:18:02.300Z,1.17
2022-10-24T12:20:29.731Z,1.15
2022-10-24T12:22:57.755Z,1.25
2022-10-24T12:25:33.110Z,1.40
2022-10-24T12:28:06.091Z,1.20
2022-10-24T12:30:36.244Z,1.92
2022-10-24T12:33:11.250Z,1.30
2022-10-24T12:35:40.874Z,2.25
2022-10-24T12:38:28.074Z,1.52
2022-10-24T12:40:59.247Z,1.52
2022-10-24T12:43:32.757Z,1.80
2022-10-24T12:46:23.482Z,1.33
2022-10-24T12:48:59.574Z,1.40
2022-10-24T12:51:33.120Z,1.65
2022-10-24T12:54:11.974Z,2.30
2022-10-24T12:56:53.645Z,1.98
2022-10-24T12:59:22.400Z,2.10
2022-10-24T13:01:51.655Z,2.00
2022-10-24T13:04:50.579Z,1.38
2022-10-24T13:07:51.007Z,1.60
2022-10-24T13:10:45.790Z,1.90
2022-10-24T13:13:48.057Z,2.38
2022-10-24T13:16:28.574Z,1.30
2022-10-24T13:19:13.468Z,2.97
2022-10-24T13:21:49.845Z,1.83
2022-10-24T13:24:16.631Z,1.30
2022-10-24T13:26:51.356Z,1.67
2022-10-24T13:29:23.926Z,2.30
2022-10-24T13:32:15.363Z,2.13
2022-10-24T13:34:50.362Z,2.50
2022-10-24T13:37:45.722Z,2.28
2022-10-24T13:40:30.729Z,1.50
2022-10-24T13:43:13.001Z,1.70
2022-10-24T13:45:51.981Z,1.88
2022-10-24T13:48:24.216Z,1.85
2022-10-24T13:51:20.886Z,2.00
2022-10-24T13:53:53.179Z,1.85
2022-10-24T13:56:20.444Z,2.10
2022-10-24T13:58:47.260Z,2.78
2022-10-24T14:01:22.164Z,2.40
2022-10-24T14:03:50.342Z,1.27
2022-10-24T14:06:23.302Z,1.40
2022-10-24T14:09:02.740Z,1.73
2022-10-24T14:11:32.733Z,1.80
2022-10-24T14:14:05.683Z,1.88
2022-10-24T14:16:35.585Z,2.33
2022-10-24T14:19:15.414Z,1.75
2022-10-24T19:51:11.067Z,2.95
2022-10-24T19:53:40.338Z,2.53
2022-10-24T19:56:09.210Z,2.97
2022-10-24T19:58:37.083Z,4.38
2022-10-24T20:01:09.052Z,3.08
2022-10-24T20:03:37.708Z,2.33
2022-10-24T20:06:04.971Z,2.22
2022-10-24T20:08:31.874Z,2.13
2022-10-24T20:10:59.248Z,2.67
2022-10-24T20:13:26.512Z,1.92
2022-10-24T20:16:02.768Z,2.55
2022-10-24T20:18:30.765Z,2.13
2022-10-24T20:20:59.804Z,2.97
2022-10-24T20:23:26.789Z,2.22
2022-10-24T20:26:14.814Z,1.98
2022-10-24T20:28:44.150Z,1.52
2022-10-24T20:31:23.189Z,2.05
2022-10-24T20:33:50.636Z,2.22
2022-10-24T20:36:18.215Z,2.92
2022-10-24T20:38:45.063Z,2.60
2022-10-24T20:41:12.160Z,2.20
2022-10-24T20:43:39.028Z,2.45
2022-10-24T20:46:06.753Z,2.60
2022-10-24T20:48:34.602Z,1.88
2022-10-24T20:51:13.125Z,2.63
2022-10-24T20:53:41.027Z,2.65
2022-10-24T20:56:10.405Z,2.92
2022-10-24T20:58:39.427Z,1.63
2022-10-24T21:01:08.261Z,2.63
2022-10-24T21:03:36.614Z,2.67
2022-10-24T21:06:04.845Z,2.40
2022-10-24T21:08:31.871Z,3.38
2022-10-24T21:10:58.713Z,2.60
2022-10-24T21:13:25.483Z,1.65
2022-10-24T21:15:56.744Z,2.92
2022-10-24T21:18:23.592Z,1.30
2022-10-24T21:20:50.463Z,2.60
2022-10-24T21:23:17.355Z,1.25
2022-10-24T21:25:44.159Z,1.92
2022-10-24T21:28:10.970Z,2.20
2022-10-24T21:30:37.754Z,1.88
2022-10-24T21:33:05.358Z,1.65
2022-10-24T21:35:32.094Z,1.70
2022-10-24T21:37:58.900Z,1.83
2022-10-24T21:40:25.694Z,1.58
2022-10-24T21:42:52.467Z,3.17
2022-10-24T21:45:19.231Z,2.05
2022-10-24T21:47:46.007Z,2.50
2022-10-24T21:50:12.755Z,2.75
2022-10-24T21:52:39.538Z,1.63
2022-10-24T21:55:06.740Z,2.25
2022-10-24T21:57:33.542Z,1.58
2022-10-24T22:00:00.337Z,1.83
2022-10-24T22:02:27.241Z,1.58
2022-10-24T22:04:54.091Z,1.92
2022-10-24T22:07:20.953Z,1.15
2022-10-24T22:09:47.779Z,1.52
2022-10-24T22:12:14.565Z,1.15
2022-10-24T22:14:41.354Z,1.25
2022-10-24T22:17:08.170Z,1.73
2022-10-24T22:19:34.942Z,1.88
2022-10-24T22:22:01.751Z,2.47
2022-10-24T22:24:28.548Z,1.77
2022-10-24T22:26:55.344Z,2.20
2022-10-24T22:29:24.746Z,1.25
2022-10-24T22:31:52.868Z,1.67
2022-10-24T22:34:22.383Z,1.67
2022-10-24T22:37:05.512Z,1.52
2022-10-24T22:39:32.775Z,1.15
2022-10-24T22:41:59.914Z,1.95
2022-10-24T22:44:26.957Z,1.25
2022-10-24T22:47:15.030Z,1.70
2022-10-24T22:50:03.770Z,1.30
2022-10-24T22:52:30.864Z,1.58
2022-10-24T22:54:57.908Z,2.83
2022-10-24T22:57:25.391Z,1.23
2022-10-24T22:59:52.502Z,0.73
2022-10-24T23:02:31.900Z,0.88
2022-10-24T23:04:58.751Z,2.00
2022-10-24T23:07:32.821Z,1.65
2022-10-24T23:09:59.610Z,0.80
2022-10-24T23:12:26.679Z,1.42
2022-10-24T23:14:54.014Z,1.15
2022-10-24T23:17:29.158Z,1.17
2022-10-24T23:19:57.090Z,1.42
2022-10-24T23:22:29.719Z,0.95
2022-10-24T23:27:41.283Z,1.30
2022-10-24T23:30:19.313Z,1.70
2022-10-24T23:32:47.402Z,0.88
2022-10-24T23:35:16.361Z,1.60
2022-10-24T23:37:46.258Z,1.88
2022-10-24T23:40:37.769Z,0.80
2022-10-24T23:43:05.124Z,0.93
2022-10-24T23:45:40.290Z,0.93
2022-10-24T23:48:34.374Z,1.25
2022-10-24T23:51:46.616Z,1.13
2022-10-24T23:54:13.777Z,0.90
2022-10-24T23:56:40.866Z,1.20
2022-10-24T23:59:07.686Z,1.05
